Time;durP1;ratioP1;P1;durP2;ratioP2;P2;SDS_P1;SDS_P2;PMS_P1;PMS_P2;Temp;Humidity;BMP_temperature;BMP_pressure;BME280_temperature;BME280_humidity;BME280_pressure;Samples;Min_cycle;Max_cycle;Signal;HPM_P1;HPM_P2
2021/11/14 00:01:53;;;;;;;13.43;2.45;;;;;;;7.22;100.00;102317.97;5015825;28;20087;-79
2021/11/14 00:04:19;;;;;;;8.15;2.63;;;;;;;7.19;100.00;102323.63;5014522;28;20042;-79
2021/11/14 00:06:44;;;;;;;8.75;2.00;;;;;;;7.05;100.00;102299.91;5016717;28;20041;-78
2021/11/14 00:09:12;;;;;;;11.70;2.40;;;;;;;7.14;100.00;102308.94;5015842;28;20026;-79
2021/11/14 00:11:37;;;;;;;11.70;3.03;;;;;;;7.21;100.00;102315.44;5015683;28;20033;-79
2021/11/14 00:14:03;;;;;;;8.25;2.13;;;;;;;7.19;100.00;102322.78;5016835;28;20048;-79
2021/11/14 00:16:28;;;;;;;9.02;2.25;;;;;;;7.16;100.00;102320.38;5002011;28;20033;-78
2021/11/14 00:18:54;;;;;;;7.65;2.13;;;;;;;7.07;100.00;102314.84;5023327;28;20026;-79
2021/11/14 00:21:22;;;;;;;11.98;2.55;;;;;;;7.06;100.00;102313.16;5017012;28;20447;-79
2021/11/14 00:23:48;;;;;;;10.75;2.42;;;;;;;7.15;100.00;102330.25;5016318;28;20522;-79
2021/11/14 00:26:14;;;;;;;12.00;2.42;;;;;;;7.09;100.00;102325.44;5015699;28;20045;-79
2021/11/14 00:28:42;;;;;;;10.13;2.70;;;;;;;7.14;100.00;102327.69;5017387;28;20037;-79
2021/11/14 00:31:13;;;;;;;9.25;2.13;;;;;;;7.14;100.00;102325.00;5015154;28;20038;-79
2021/11/14 00:33:43;;;;;;;12.35;2.35;;;;;;;7.12;100.00;102333.19;5015620;28;20093;-79
2021/11/14 00:36:11;;;;;;;16.15;3.05;;;;;;;7.18;100.00;102339.78;5016706;28;20065;-79
2021/11/14 00:38:38;;;;;;;8.93;2.30;;;;;;;7.05;100.00;102324.88;5015185;28;20045;-79
2021/11/14 00:41:04;;;;;;;11.18;2.25;;;;;;;7.03;100.00;102326.00;5000742;28;20467;-79
2021/11/14 00:43:30;;;;;;;9.15;2.15;;;;;;;7.09;100.00;102341.50;5015002;28;20065;-79
2021/11/14 00:45:55;;;;;;;10.52;2.38;;;;;;;7.09;100.00;102348.69;5014882;28;20104;-79
2021/11/14 00:48:20;;;;;;;10.27;2.42;;;;;;;7.14;100.00;102349.09;4998235;28;20030;-79
2021/11/14 00:50:47;;;;;;;10.40;2.50;;;;;;;7.06;100.00;102339.94;4998776;28;20045;-81
2021/11/14 00:53:15;;;;;;;10.75;2.70;;;;;;;7.08;100.00;102353.16;5015905;28;20033;-79
2021/11/14 00:55:41;;;;;;;12.75;2.17;;;;;;;7.10;100.00;102364.59;5015041;28;20025;-79
2021/11/14 00:58:07;;;;;;;10.40;2.28;;;;;;;7.16;100.00;102366.72;5016055;28;20128;-79
2021/11/14 01:00:34;;;;;;;9.90;2.38;;;;;;;7.16;100.00;102372.06;5015066;28;20663;-79
2021/11/14 01:03:00;;;;;;;8.85;2.00;;;;;;;7.20;100.00;102372.66;5014282;28;20058;-79
2021/11/14 01:05:26;;;;;;;10.70;2.40;;;;;;;6.94;100.00;102338.34;5014863;28;20155;-79
2021/11/14 01:07:52;;;;;;;12.13;2.88;;;;;;;6.97;100.00;102367.53;5014012;28;20034;-79
2021/11/14 01:10:25;;;;;;;11.32;2.65;;;;;;;7.04;100.00;102374.00;5020115;28;20041;-79
2021/11/14 01:12:50;;;;;;;13.90;2.42;;;;;;;6.89;100.00;102356.66;5016032;28;20034;-78
2021/11/14 01:15:18;;;;;;;12.02;2.75;;;;;;;7.04;100.00;102381.19;5015117;28;20150;-80
2021/11/14 01:17:43;;;;;;;10.30;2.22;;;;;;;7.02;100.00;102375.16;5016037;28;20160;-79
2021/11/14 01:20:14;;;;;;;10.88;2.10;;;;;;;7.09;100.00;102386.16;5015632;28;20057;-79
2021/11/14 01:22:40;;;;;;;10.32;2.20;;;;;;;6.92;100.00;102358.19;5016148;28;20030;-80
2021/11/14 01:25:07;;;;;;;12.50;2.50;;;;;;;7.10;100.00;102387.84;4996889;28;20040;-80
2021/11/14 01:27:32;;;;;;;9.27;2.35;;;;;;;6.98;100.00;102377.22;5015971;28;20100;-79
2021/11/14 01:29:58;;;;;;;13.95;2.60;;;;;;;7.02;100.00;102384.03;4996837;28;20059;-79
2021/11/14 01:32:24;;;;;;;8.38;2.53;;;;;;;6.80;100.00;102360.16;5014858;28;20018;-79
2021/11/14 01:34:49;;;;;;;11.10;3.10;;;;;;;6.86;100.00;102370.31;4997585;28;20057;-79
2021/11/14 01:37:15;;;;;;;9.25;2.78;;;;;;;6.95;100.00;102398.91;5012362;28;20079;-79
2021/11/14 01:39:40;;;;;;;7.40;2.55;;;;;;;6.92;100.00;102379.59;5014508;28;20064;-78
2021/11/14 01:42:06;;;;;;;12.38;2.88;;;;;;;6.90;100.00;102381.59;5013856;28;20037;-79
2021/11/14 01:44:31;;;;;;;13.98;2.78;;;;;;;6.95;100.00;102395.41;5013893;28;20030;-79
2021/11/14 01:46:56;;;;;;;8.13;2.65;;;;;;;6.98;100.00;102400.47;5012922;28;20030;-79
2021/11/14 01:49:22;;;;;;;9.35;2.53;;;;;;;6.92;100.00;102382.28;5014230;28;20025;-79
2021/11/14 01:51:48;;;;;;;12.60;3.00;;;;;;;6.97;100.00;102410.34;5013790;28;20399;-80
2021/11/14 01:54:19;;;;;;;8.45;2.63;;;;;;;7.01;100.00;102410.91;4997689;28;20030;-79
2021/11/14 01:56:46;;;;;;;9.38;2.67;;;;;;;6.97;100.00;102394.28;5013772;28;20441;-79
2021/11/14 01:59:12;;;;;;;10.23;2.55;;;;;;;7.03;100.00;102412.47;5013286;28;20034;-79
2021/11/14 02:01:37;;;;;;;9.38;2.60;;;;;;;7.02;100.00;102392.06;5014238;28;20113;-79
2021/11/14 02:04:05;;;;;;;9.68;3.13;;;;;;;7.02;100.00;102402.75;4997114;28;20064;-79
2021/11/14 02:06:32;;;;;;;11.68;2.97;;;;;;;7.11;100.00;102411.78;5011179;28;21607;-79
2021/11/14 02:09:00;;;;;;;10.95;2.80;;;;;;;7.07;100.00;102416.56;5014840;28;20045;-79
2021/11/14 02:11:26;;;;;;;13.68;3.08;;;;;;;7.11;100.00;102416.28;5014269;28;20034;-79
2021/11/14 02:13:52;;;;;;;11.13;3.00;;;;;;;7.05;100.00;102418.56;5011988;28;20080;-79
2021/11/14 02:16:23;;;;;;;13.93;3.13;;;;;;;6.94;100.00;102389.19;5006895;28;20539;-79
2021/11/14 02:18:50;;;;;;;15.15;3.60;;;;;;;7.14;100.00;102427.56;5013637;28;20391;-79
2021/11/14 02:21:15;;;;;;;10.50;2.95;;;;;;;7.14;100.00;102432.09;5014727;28;20033;-79
2021/11/14 02:23:41;;;;;;;13.93;3.35;;;;;;;7.13;100.00;102436.59;5013967;28;20033;-79
2021/11/14 02:26:07;;;;;;;13.23;3.08;;;;;;;7.10;100.00;102444.06;5014207;28;20723;-79
2021/11/14 02:28:34;;;;;;;14.48;4.10;;;;;;;7.12;100.00;102442.06;5018098;28;20108;-79
2021/11/14 02:31:00;;;;;;;14.68;3.10;;;;;;;6.99;100.00;102424.44;5016666;28;20113;-80
2021/11/14 02:33:27;;;;;;;9.70;3.00;;;;;;;7.06;100.00;102440.81;5013967;28;20513;-78
2021/11/14 02:36:00;;;;;;;10.77;4.32;;;;;;;7.14;100.00;102449.00;5011390;28;20367;-79
2021/11/14 02:38:27;;;;;;;14.18;3.40;;;;;;;7.17;100.00;102451.41;5013199;28;20025;-79
2021/11/14 02:40:53;;;;;;;9.27;3.30;;;;;;;7.07;100.00;102432.63;5007852;28;20091;-79
2021/11/14 02:43:19;;;;;;;12.75;3.83;;;;;;;7.18;100.00;102455.75;5014976;28;20428;-80
2021/11/14 02:45:45;;;;;;;12.25;3.30;;;;;;;7.16;100.00;102457.75;5012645;28;20022;-79
2021/11/14 02:48:13;;;;;;;9.23;3.20;;;;;;;7.20;100.00;102458.31;5013980;28;20558;-79
2021/11/14 02:50:39;;;;;;;12.50;3.30;;;;;;;7.14;100.00;102456.19;5013415;28;20049;-79
2021/11/14 02:53:06;;;;;;;11.32;3.28;;;;;;;7.21;100.00;102468.88;5013116;28;20014;-79
2021/11/14 02:55:32;;;;;;;11.25;3.42;;;;;;;7.24;100.00;102470.44;4997004;28;20460;-80
2021/11/14 02:57:58;;;;;;;15.23;3.75;;;;;;;7.12;100.00;102448.28;5013070;28;20064;-79
2021/11/14 03:00:36;;;;;;;16.20;3.70;;;;;;;7.25;100.00;102474.81;5011830;28;20022;-79
2021/11/14 03:03:01;;;;;;;11.65;3.45;;;;;;;7.23;100.00;102476.78;5000456;28;20448;-80
2021/11/14 03:05:27;;;;;;;15.90;3.67;;;;;;;7.21;100.00;102474.22;5001217;28;20058;-80
2021/11/14 03:07:54;;;;;;;11.80;3.28;;;;;;;7.26;100.00;102479.19;5018891;28;20084;-79
2021/11/14 03:10:25;;;;;;;13.38;3.50;;;;;;;7.09;100.00;102445.03;5020559;28;20033;-79
2021/11/14 03:12:53;;;;;;;11.07;3.40;;;;;;;7.28;100.00;102482.56;5018410;28;20109;-80
2021/11/14 03:15:20;;;;;;;10.38;3.17;;;;;;;7.20;100.00;102469.88;5019930;28;20018;-80
2021/11/14 03:17:46;;;;;;;13.30;3.40;;;;;;;7.20;100.00;102474.38;5016708;28;20029;-80
2021/11/14 03:20:11;;;;;;;11.75;3.05;;;;;;;7.23;100.00;102490.16;5018132;28;20111;-80
2021/11/14 03:22:37;;;;;;;10.73;3.75;;;;;;;7.23;100.00;102492.84;5017349;28;20038;-79
2021/11/14 03:25:03;;;;;;;9.98;3.17;;;;;;;7.16;100.00;102494.38;5016016;28;20514;-79
2021/11/14 03:27:29;;;;;;;11.27;3.10;;;;;;;6.97;100.00;102477.25;5016195;28;20058;-80
2021/11/14 03:29:54;;;;;;;12.55;3.17;;;;;;;7.09;100.00;102506.63;5016539;28;20087;-79
2021/11/14 03:32:19;;;;;;;9.40;3.20;;;;;;;6.86;100.00;102480.03;5016273;28;20033;-80
2021/11/14 03:34:45;;;;;;;9.48;2.80;;;;;;;6.97;100.00;102501.34;5017415;28;20440;-79
2021/11/14 03:37:17;;;;;;;12.00;2.83;;;;;;;7.07;100.00;102518.28;5017200;28;20069;-79
2021/11/14 03:39:43;;;;;;;11.52;2.85;;;;;;;7.04;100.00;102521.22;5016394;28;20090;-80
2021/11/14 03:42:09;;;;;;;10.32;2.25;;;;;;;7.06;100.00;102526.47;5018867;28;20121;-80
2021/11/14 03:44:35;;;;;;;10.55;2.35;;;;;;;7.05;100.00;102520.25;5021051;28;20026;-79
2021/11/14 03:47:01;;;;;;;8.20;2.05;;;;;;;7.02;100.00;102531.22;5016306;28;20030;-79
2021/11/14 03:49:26;;;;;;;5.80;2.03;;;;;;;7.03;100.00;102538.28;4999616;28;20129;-79
2021/11/14 03:51:52;;;;;;;7.20;2.15;;;;;;;7.00;100.00;102535.03;5015646;28;20029;-80
2021/11/14 03:54:17;;;;;;;10.73;2.40;;;;;;;7.03;100.00;102540.94;5016945;28;20033;-79
2021/11/14 03:56:43;;;;;;;7.50;2.17;;;;;;;7.09;100.00;102542.25;4998870;28;20064;-79
2021/11/14 03:59:08;;;;;;;10.88;2.35;;;;;;;7.08;100.00;102548.56;5017547;28;20371;-80
2021/11/14 04:01:34;;;;;;;5.38;1.70;;;;;;;7.10;100.00;102551.97;5015674;28;20029;-79
2021/11/14 04:03:59;;;;;;;8.80;2.05;;;;;;;7.09;100.00;102544.94;5016213;28;20109;-79
2021/11/14 04:06:26;;;;;;;9.73;2.10;;;;;;;7.17;100.00;102565.66;5016452;28;20026;-79
2021/11/14 04:08:53;;;;;;;9.63;2.28;;;;;;;7.19;100.00;102561.03;5016686;28;20025;-79
2021/11/14 04:11:19;;;;;;;7.85;2.28;;;;;;;7.16;99.94;102563.97;5016113;28;20026;-79
2021/11/14 04:13:45;;;;;;;8.48;2.47;;;;;;;7.12;99.77;102559.84;5016937;28;20034;-79
2021/11/14 04:16:11;;;;;;;9.75;2.05;;;;;;;7.18;99.76;102567.34;5016788;28;20036;-79
2021/11/14 04:18:37;;;;;;;8.70;2.25;;;;;;;7.10;100.00;102564.50;5015414;28;20037;-79
2021/11/14 04:21:04;;;;;;;13.93;3.13;;;;;;;7.03;100.00;102559.69;5016073;28;20038;-79
2021/11/14 04:23:29;;;;;;;11.55;2.80;;;;;;;6.54;100.00;102491.66;5016797;28;20034;-79
2021/11/14 04:25:55;;;;;;;8.05;2.53;;;;;;;7.09;100.00;102584.25;5015371;28;20133;-79
2021/11/14 04:28:21;;;;;;;9.38;2.60;;;;;;;6.93;100.00;102574.84;4997905;28;20403;-79
2021/11/14 04:30:48;;;;;;;11.10;3.22;;;;;;;6.91;100.00;102568.75;5016062;28;20030;-79
2021/11/14 04:33:15;;;;;;;12.23;3.10;;;;;;;6.91;100.00;102592.84;5014489;28;20022;-80
2021/11/14 04:35:41;;;;;;;9.77;2.50;;;;;;;6.86;100.00;102589.72;5016820;28;20100;-79
2021/11/14 04:38:06;;;;;;;13.27;3.10;;;;;;;6.78;100.00;102592.19;5015072;28;20455;-79
2021/11/14 04:40:36;;;;;;;8.23;3.10;;;;;;;6.84;100.00;102602.38;5015711;28;20030;-79
2021/11/14 04:43:02;;;;;;;8.35;3.15;;;;;;;6.67;100.00;102581.56;5014531;28;20033;-79
2021/11/14 04:45:27;;;;;;;8.10;2.83;;;;;;;6.79;100.00;102593.91;5015313;28;20371;-79
2021/11/14 04:47:53;;;;;;;15.00;3.70;;;;;;;6.77;100.00;102593.19;5015818;28;20030;-79
2021/11/14 04:50:20;;;;;;;11.95;3.13;;;;;;;6.70;100.00;102594.69;5015404;28;20026;-80
2021/11/14 04:52:47;;;;;;;9.10;2.88;;;;;;;6.62;100.00;102602.50;4994928;28;20117;-79
2021/11/14 04:55:13;;;;;;;9.55;3.00;;;;;;;6.71;100.00;102596.38;4996187;28;20029;-78
2021/11/14 04:57:38;;;;;;;11.02;3.08;;;;;;;6.71;100.00;102607.06;4996387;28;20026;-80
2021/11/14 05:00:08;;;;;;;8.57;2.88;;;;;;;6.58;100.00;102597.41;5000903;28;20115;-79
2021/11/14 05:02:33;;;;;;;8.93;2.92;;;;;;;6.63;100.00;102610.41;5013277;28;20022;-79
2021/11/14 05:04:59;;;;;;;9.70;3.00;;;;;;;6.49;100.00;102605.34;4999142;28;20053;-79
2021/11/14 05:07:24;;;;;;;10.13;3.35;;;;;;;6.46;100.00;102602.97;5014613;28;20034;-79
2021/11/14 05:09:52;;;;;;;12.80;3.30;;;;;;;6.42;100.00;102602.34;4999323;28;20030;-79
2021/11/14 05:12:17;;;;;;;8.80;3.08;;;;;;;6.38;100.00;102600.91;4981578;28;20117;-79
2021/11/14 05:14:43;;;;;;;11.38;3.03;;;;;;;6.42;100.00;102623.72;5015732;28;20109;-79
2021/11/14 05:17:08;;;;;;;9.38;2.70;;;;;;;6.44;100.00;102621.78;4996299;28;20427;-79
2021/11/14 05:19:33;;;;;;;9.80;2.55;;;;;;;6.42;100.00;102626.41;5015383;28;20084;-79
2021/11/14 05:21:59;;;;;;;12.27;2.78;;;;;;;6.43;100.00;102625.44;5014183;28;20376;-79
2021/11/14 05:24:24;;;;;;;10.02;2.60;;;;;;;6.31;100.00;102639.81;4998557;28;20368;-79
2021/11/14 05:26:53;;;;;;;7.55;2.88;;;;;;;6.27;100.00;102630.34;5015513;28;20532;-81
2021/11/14 05:29:18;;;;;;;9.13;2.70;;;;;;;6.23;100.00;102643.13;5000958;28;20034;-79
2021/11/14 05:31:43;;;;;;;7.90;2.45;;;;;;;6.08;100.00;102647.88;4997323;28;20087;-79
2021/11/14 05:34:09;;;;;;;8.52;2.60;;;;;;;6.02;100.00;102658.22;5013283;28;20033;-79
2021/11/14 05:36:35;;;;;;;8.02;2.58;;;;;;;6.00;100.00;102655.69;5014860;28;20367;-79
2021/11/14 05:39:01;;;;;;;6.00;2.38;;;;;;;5.91;100.00;102656.38;5012934;28;20031;-79
2021/11/14 05:41:27;;;;;;;8.55;2.85;;;;;;;5.85;100.00;102670.22;5014583;28;20022;-79
2021/11/14 05:43:52;;;;;;;9.07;2.95;;;;;;;5.84;100.00;102666.72;4981342;28;20339;-79
2021/11/14 05:46:18;;;;;;;8.25;3.03;;;;;;;5.81;100.00;102676.81;5013370;28;20374;-79
2021/11/14 05:48:43;;;;;;;7.15;2.92;;;;;;;5.74;100.00;102683.59;5012978;28;20041;-79
2021/11/14 05:51:08;;;;;;;8.05;2.83;;;;;;;5.64;100.00;102670.13;5012292;28;20075;-79
2021/11/14 05:53:34;;;;;;;7.97;2.60;;;;;;;5.64;100.00;102686.16;5014214;28;20447;-79
2021/11/14 05:56:00;;;;;;;8.30;2.60;;;;;;;5.64;100.00;102687.00;5013599;28;20034;-79
2021/11/14 06:01:32;;;;;;;8.27;2.40;;;;;;;5.66;100.00;102705.56;4955268;28;20047;-79
2021/11/14 06:04:07;;;;;;;9.48;2.55;;;;;;;5.51;100.00;102691.59;4986920;28;20050;-79
2021/11/14 06:06:33;;;;;;;7.03;2.30;;;;;;;5.57;100.00;102698.28;4996332;28;20030;-79
2021/11/14 06:08:58;;;;;;;5.85;2.35;;;;;;;5.70;100.00;102706.19;5015085;28;20025;-79
2021/11/14 06:11:24;;;;;;;7.57;2.65;;;;;;;5.68;100.00;102706.28;5012526;28;20042;-79
2021/11/14 06:13:50;;;;;;;9.05;2.85;;;;;;;5.72;100.00;102714.91;5017117;28;20021;-80
2021/11/14 06:16:16;;;;;;;6.95;2.65;;;;;;;5.77;100.00;102720.75;5015894;28;20026;-79
2021/11/14 06:18:41;;;;;;;10.55;2.75;;;;;;;5.68;100.00;102725.00;5012618;28;20045;-80
2021/11/14 06:21:07;;;;;;;10.15;2.53;;;;;;;5.55;100.00;102706.41;5013288;28;20493;-79
2021/11/14 06:23:32;;;;;;;6.22;2.67;;;;;;;5.56;100.00;102716.13;5013940;28;20026;-80
2021/11/14 06:25:58;;;;;;;6.18;2.90;;;;;;;5.45;100.00;102701.91;5012935;28;20034;-79
2021/11/14 06:28:24;;;;;;;7.32;3.00;;;;;;;5.60;100.00;102733.63;5014084;28;20034;-79
2021/11/14 06:30:49;;;;;;;8.80;3.00;;;;;;;5.61;100.00;102723.78;5013744;28;20037;-79
2021/11/14 06:33:16;;;;;;;9.13;2.97;;;;;;;5.61;100.00;102723.78;4981036;28;20117;-79
2021/11/14 06:35:41;;;;;;;11.57;3.22;;;;;;;5.57;100.00;102736.53;5012675;28;20045;-79
2021/11/14 06:38:07;;;;;;;5.95;2.60;;;;;;;5.50;100.00;102721.09;5011997;28;20470;-79
2021/11/14 06:40:33;;;;;;;8.32;2.88;;;;;;;5.48;100.00;102737.22;5010379;28;20032;-79
2021/11/14 06:42:59;;;;;;;6.72;2.85;;;;;;;5.46;100.00;102743.66;5008200;28;20336;-79
2021/11/14 06:45:24;;;;;;;12.45;2.90;;;;;;;5.54;100.00;102751.94;5005582;28;20118;-79
2021/11/14 06:47:49;;;;;;;7.80;2.72;;;;;;;5.57;100.00;102770.38;5010097;28;20424;-80
2021/11/14 06:50:15;;;;;;;7.57;3.00;;;;;;;5.59;100.00;102766.59;5001275;28;20483;-79
2021/11/14 06:52:43;;;;;;;7.80;3.00;;;;;;;5.58;100.00;102778.25;5003335;28;20411;-79
2021/11/14 06:55:10;;;;;;;10.60;3.10;;;;;;;5.53;100.00;102769.78;5009594;28;20302;-78
2021/11/14 06:57:37;;;;;;;6.90;3.03;;;;;;;5.58;100.00;102785.44;5013994;28;20026;-79
2021/11/14 07:00:06;;;;;;;5.25;2.78;;;;;;;5.48;100.00;102782.63;5012691;28;20599;-79
2021/11/14 07:02:31;;;;;;;11.15;3.13;;;;;;;5.23;100.00;102742.72;5012216;28;20034;-79
2021/11/14 07:04:57;;;;;;;8.10;2.85;;;;;;;5.52;100.00;102793.91;5012181;28;20064;-80
2021/11/14 07:07:22;;;;;;;8.95;2.95;;;;;;;5.55;100.00;102805.19;5013186;28;20065;-79
2021/11/14 07:09:47;;;;;;;11.43;2.78;;;;;;;5.57;100.00;102800.59;5012690;28;20045;-79
2021/11/14 07:12:13;;;;;;;6.38;2.72;;;;;;;5.61;100.00;102814.56;5013167;28;20045;-79
2021/11/14 07:14:38;;;;;;;9.57;2.78;;;;;;;5.48;100.00;102805.78;4995377;28;20030;-79
2021/11/14 07:17:04;;;;;;;8.77;2.80;;;;;;;5.21;100.00;102768.69;4996587;28;20095;-79
2021/11/14 07:19:29;;;;;;;5.47;2.42;;;;;;;5.55;100.00;102850.59;5011860;28;20026;-79
2021/11/14 07:21:56;;;;;;;8.52;2.90;;;;;;;5.50;100.00;102827.91;5012292;28;20116;-79
2021/11/14 07:24:23;;;;;;;5.47;2.55;;;;;;;5.64;100.00;102849.91;5013777;28;20045;-79
2021/11/14 07:26:49;;;;;;;11.38;2.85;;;;;;;5.52;100.00;102840.16;4996742;28;20506;-78
2021/11/14 07:29:14;;;;;;;5.45;2.45;;;;;;;5.37;100.00;102838.66;5013433;28;20049;-78
2021/11/14 07:31:40;;;;;;;9.23;2.63;;;;;;;5.49;100.00;102869.75;5012192;28;20055;-78
2021/11/14 07:34:06;;;;;;;4.65;2.50;;;;;;;5.50;100.00;102871.47;5017539;28;20030;-79
2021/11/14 07:36:31;;;;;;;6.28;2.60;;;;;;;5.34;100.00;102850.41;5000200;28;20068;-79
2021/11/14 07:38:57;;;;;;;7.43;2.83;;;;;;;5.44;100.00;102877.28;4996534;28;20034;-78
2021/11/14 07:41:22;;;;;;;7.93;2.95;;;;;;;5.27;100.00;102853.66;5012824;28;20087;-78
2021/11/14 07:43:48;;;;;;;6.20;2.30;;;;;;;5.20;100.00;102847.94;5010016;28;20022;-82
2021/11/14 07:46:13;;;;;;;8.05;2.53;;;;;;;5.54;100.00;102888.97;5011452;28;20030;-80
2021/11/14 07:48:39;;;;;;;7.10;2.50;;;;;;;5.56;100.00;102879.03;5020820;28;20541;-82
2021/11/14 07:51:04;;;;;;;6.18;2.30;;;;;;;5.24;100.00;102817.38;5001226;28;20026;-80
2021/11/14 07:53:31;;;;;;;8.20;2.40;;;;;;;5.56;100.00;102873.69;5021719;28;20064;-80
2021/11/14 07:55:57;;;;;;;7.53;2.30;;;;;;;5.41;100.00;102850.81;5021867;28;20029;-80
2021/11/14 07:58:23;;;;;;;7.20;2.70;;;;;;;5.52;100.00;102896.22;5018515;28;20427;-80
2021/11/14 08:00:50;;;;;;;6.22;2.47;;;;;;;5.47;100.00;102895.72;5020039;28;20021;-80
2021/11/14 08:03:16;;;;;;;7.55;2.22;;;;;;;5.53;100.00;102899.75;5018412;28;20030;-79
2021/11/14 08:05:42;;;;;;;8.07;2.70;;;;;;;5.53;100.00;102892.59;5022849;28;20061;-79
2021/11/14 08:08:08;;;;;;;6.25;2.40;;;;;;;5.46;100.00;102878.00;5017179;28;20129;-79
2021/11/14 08:10:36;;;;;;;6.35;2.40;;;;;;;5.60;100.00;102890.34;5019014;28;20025;-80
2021/11/14 08:13:02;;;;;;;6.90;2.80;;;;;;;5.58;100.00;102893.09;5020175;28;20022;-79
2021/11/14 08:15:28;;;;;;;9.88;2.70;;;;;;;5.68;100.00;102903.94;5014880;28;20415;-80
2021/11/14 08:17:54;;;;;;;6.10;2.58;;;;;;;5.74;100.00;102900.81;5016843;28;20076;-79
2021/11/14 08:20:20;;;;;;;6.40;2.03;;;;;;;5.87;100.00;102906.09;5016795;28;20034;-80
2021/11/14 08:22:46;;;;;;;5.22;2.17;;;;;;;5.76;100.00;102887.31;5016382;28;20069;-80
2021/11/14 08:25:13;;;;;;;5.95;2.42;;;;;;;5.97;100.00;102900.94;5017368;28;20455;-79
2021/11/14 08:27:39;;;;;;;6.22;2.47;;;;;;;5.82;100.00;102870.84;5015733;28;20038;-79
2021/11/14 08:30:10;;;;;;;6.55;2.42;;;;;;;5.98;100.00;102899.94;5016480;28;20460;-79
2021/11/14 08:32:36;;;;;;;4.22;2.05;;;;;;;5.94;100.00;102899.34;5014852;28;20399;-79
2021/11/14 08:35:03;;;;;;;7.13;2.40;;;;;;;6.03;100.00;102916.50;5016873;28;20025;-79
2021/11/14 08:37:29;;;;;;;5.95;2.40;;;;;;;5.93;100.00;102889.63;5013817;28;20029;-79
2021/11/14 08:39:54;;;;;;;6.80;2.00;;;;;;;6.12;100.00;102915.75;5015839;28;20363;-78
2021/11/14 08:42:20;;;;;;;6.57;2.38;;;;;;;6.07;99.95;102899.25;5015012;28;20028;-78
2021/11/14 08:44:46;;;;;;;6.15;1.98;;;;;;;6.19;99.98;102913.47;5014709;28;20026;-78
2021/11/14 08:47:11;;;;;;;7.18;2.20;;;;;;;6.18;99.83;102917.97;5015700;28;20057;-78
2021/11/14 08:49:38;;;;;;;5.70;1.88;;;;;;;6.00;99.83;102901.53;5020989;28;20037;-78
2021/11/14 08:52:04;;;;;;;5.78;2.05;;;;;;;5.94;99.44;102885.13;5014851;28;20018;-78
2021/11/14 08:54:29;;;;;;;8.52;2.03;;;;;;;6.21;99.21;102930.25;5015913;28;20041;-77
2021/11/14 08:56:55;;;;;;;4.65;2.10;;;;;;;6.14;99.36;102945.06;5014402;28;20021;-77
2021/11/14 08:59:20;;;;;;;5.20;1.80;;;;;;;6.06;99.44;102945.63;4981978;28;20452;-77
2021/11/14 09:01:46;;;;;;;4.95;1.75;;;;;;;6.10;99.26;102949.78;5015409;28;20049;-78
2021/11/14 09:04:11;;;;;;;3.97;1.92;;;;;;;6.15;99.33;102960.97;4999149;28;20034;-78
2021/11/14 09:06:38;;;;;;;5.43;1.73;;;;;;;6.15;98.96;102958.28;5017206;28;20092;-77
2021/11/14 09:09:05;;;;;;;4.72;1.77;;;;;;;6.26;99.18;102962.84;5013505;28;20037;-78
2021/11/14 09:11:31;;;;;;;4.97;1.77;;;;;;;6.33;98.85;102969.41;5014340;28;20141;-78
2021/11/14 09:13:56;;;;;;;6.18;1.90;;;;;;;6.39;98.98;102965.41;4980553;28;20026;-77
2021/11/14 09:16:27;;;;;;;3.78;1.63;;;;;;;6.48;98.74;102967.38;5015270;28;20036;-78
2021/11/14 09:18:52;;;;;;;5.07;2.00;;;;;;;6.43;98.85;102965.06;5014031;28;20128;-77
2021/11/14 09:21:18;;;;;;;5.10;1.95;;;;;;;6.29;98.23;102949.22;5011589;28;20108;-78
2021/11/14 09:23:43;;;;;;;7.68;2.00;;;;;;;6.39;98.55;102968.94;5009724;28;20030;-78
2021/11/14 09:26:09;;;;;;;4.90;1.90;;;;;;;6.41;98.36;102963.47;5007460;28;20415;-77
2021/11/14 09:28:34;;;;;;;6.40;1.80;;;;;;;6.51;98.20;102970.66;5007275;28;20067;-78
2021/11/14 09:31:00;;;;;;;5.00;1.77;;;;;;;6.26;98.09;102931.63;5002989;28;20041;-77
2021/11/14 09:33:27;;;;;;;3.65;1.85;;;;;;;6.43;98.15;102967.75;5010692;28;20056;-77
2021/11/14 09:35:54;;;;;;;3.10;1.55;;;;;;;6.51;97.78;102989.38;5014585;28;20535;-77
2021/11/14 09:38:19;;;;;;;4.45;1.85;;;;;;;6.52;97.90;102999.13;5014642;28;20116;-77
2021/11/14 09:40:45;;;;;;;3.10;1.50;;;;;;;6.63;97.85;102986.75;5014705;28;20113;-78
2021/11/14 09:43:13;;;;;;;4.95;1.70;;;;;;;6.77;97.81;102983.81;5015647;28;20478;-78
2021/11/14 09:45:39;;;;;;;5.45;1.55;;;;;;;6.77;97.35;102979.31;5012981;28;20057;-78
2021/11/14 09:48:06;;;;;;;6.15;1.63;;;;;;;6.77;96.80;102984.66;5013018;28;20096;-78
2021/11/14 09:50:32;;;;;;;7.72;1.88;;;;;;;6.79;96.82;102990.78;5013124;28;20418;-78
2021/11/14 09:52:58;;;;;;;3.45;1.38;;;;;;;6.87;96.60;102987.47;5011795;28;20036;-78
2021/11/14 09:55:25;;;;;;;5.45;1.80;;;;;;;6.95;96.37;102995.72;5013671;28;20371;-77
2021/11/14 09:57:53;;;;;;;4.88;1.50;;;;;;;6.87;96.19;102970.56;5013524;28;20033;-78
2021/11/14 10:00:20;;;;;;;3.78;1.30;;;;;;;6.99;95.55;102994.53;5009852;28;20025;-79
2021/11/14 10:02:46;;;;;;;3.53;1.60;;;;;;;7.02;95.52;102986.28;5005980;28;20022;-79
2021/11/14 10:05:15;;;;;;;4.55;1.70;;;;;;;7.04;95.14;102976.28;5012280;28;20383;-79
2021/11/14 10:07:52;;;;;;;2.38;1.40;;;;;;;7.07;94.90;102977.84;5013285;28;20036;-79
2021/11/14 10:10:17;;;;;;;5.85;1.60;;;;;;;7.09;94.93;102973.25;5008233;28;20438;-79
2021/11/14 10:12:43;;;;;;;4.65;1.42;;;;;;;7.19;94.21;103003.66;5011876;28;20030;-80
2021/11/14 10:15:12;;;;;;;3.90;1.67;;;;;;;7.19;93.76;103000.13;5012653;28;20033;-79
2021/11/14 10:17:40;;;;;;;2.25;1.20;;;;;;;7.21;93.49;103008.88;5014273;28;20033;-80
2021/11/14 10:20:13;;;;;;;2.47;1.20;;;;;;;7.15;92.07;102998.66;5018227;28;20022;-80
2021/11/14 10:22:45;;;;;;;2.92;1.10;;;;;;;7.12;92.09;102959.63;5019908;28;20253;-80
2021/11/14 10:25:11;;;;;;;3.00;1.45;;;;;;;7.05;89.25;102999.41;5020261;28;20462;-79
2021/11/14 10:27:38;;;;;;;3.28;1.13;;;;;;;7.04;88.89;103010.22;5012507;28;20133;-80
2021/11/14 10:30:06;;;;;;;2.75;1.17;;;;;;;7.22;88.83;103007.94;5017211;28;20483;-80
2021/11/14 10:32:32;;;;;;;2.63;1.10;;;;;;;7.23;87.92;103004.25;5013886;28;20022;-79
2021/11/14 10:34:59;;;;;;;3.08;1.20;;;;;;;7.04;87.46;102997.69;5014926;28;20375;-80
2021/11/14 10:37:27;;;;;;;1.88;1.23;;;;;;;7.26;87.37;103012.06;5015629;28;20041;-80
2021/11/14 10:39:59;;;;;;;3.83;1.15;;;;;;;7.24;86.48;102997.91;5014790;28;20398;-79
2021/11/14 10:42:28;;;;;;;2.92;0.90;;;;;;;7.17;86.12;102997.56;5016739;28;20034;-80
2021/11/14 10:44:58;;;;;;;3.15;1.10;;;;;;;7.30;86.81;103016.19;5013553;28;20045;-80
2021/11/14 10:47:24;;;;;;;2.95;1.10;;;;;;;7.38;86.69;103019.06;5017038;28;20025;-79
2021/11/14 10:49:56;;;;;;;3.97;0.90;;;;;;;7.02;83.95;102993.47;5019292;28;20388;-80
2021/11/14 10:52:25;;;;;;;1.98;1.00;;;;;;;7.13;85.76;103019.38;5018418;28;20014;-79
2021/11/14 10:54:54;;;;;;;2.45;0.98;;;;;;;7.26;84.84;103031.66;5018265;28;20034;-80
2021/11/14 10:57:24;;;;;;;5.10;0.98;;;;;;;7.37;83.98;103028.09;5014748;28;20158;-79
2021/11/14 10:59:50;;;;;;;3.60;1.10;;;;;;;7.33;85.09;103015.09;5027291;28;20026;-80
2021/11/14 11:02:18;;;;;;;1.95;0.93;;;;;;;7.49;85.09;103031.63;4999049;28;20096;-81
2021/11/14 11:04:43;;;;;;;2.45;0.90;;;;;;;7.35;84.46;103035.44;5020874;28;20081;-80
2021/11/14 11:07:12;;;;;;;2.67;1.10;;;;;;;7.21;84.22;103009.72;5019889;28;20041;-80
2021/11/14 11:09:39;;;;;;;5.05;1.20;;;;;;;7.40;84.75;103038.56;5021877;28;20049;-80
2021/11/14 11:12:21;;;;;;;2.13;1.00;;;;;;;7.39;83.70;103031.53;5018802;28;20021;-80
2021/11/14 11:15:01;;;;;;;2.17;0.80;;;;;;;7.29;84.26;103044.78;5013676;28;20030;-80
2021/11/14 11:17:28;;;;;;;3.97;0.90;;;;;;;7.43;83.84;103043.69;5022820;28;20540;-80
2021/11/14 11:19:55;;;;;;;2.10;0.82;;;;;;;7.52;84.31;103047.44;4996107;28;20116;-80
2021/11/14 11:22:24;;;;;;;2.30;1.02;;;;;;;7.60;84.09;103054.84;5012730;28;20054;-81
2021/11/14 11:24:53;;;;;;;3.03;0.90;;;;;;;7.60;84.01;103054.84;5019389;28;20491;-80